Time;durP1;ratioP1;P1;durP2;ratioP2;P2;SDS_P1;SDS_P2;PMS_P1;PMS_P2;Temp;Humidity;BMP_temperature;BMP_pressure;BME280_temperature;BME280_humidity;BME280_pressure;Samples;Min_cycle;Max_cycle;Signal;HPM_P1;HPM_P2
2022/04/16 00:01:49;;;;;;;7.63;5.45;;;14.60;99.90;;;;;;5072460;28;20042;-73
2022/04/16 00:04:15;;;;;;;6.88;4.82;;;14.50;99.90;;;;;;5079818;28;20474;-73
2022/04/16 00:06:41;;;;;;;9.95;4.88;;;14.30;99.90;;;;;;5083399;28;20027;-73
2022/04/16 00:09:07;;;;;;;5.75;5.10;;;14.40;99.90;;;;;;5082284;28;20028;-73
2022/04/16 00:11:33;;;;;;;5.97;4.80;;;14.40;99.90;;;;;;5072705;28;20099;-73
2022/04/16 00:13:58;;;;;;;8.63;5.13;;;14.30;99.90;;;;;;5066008;28;20030;-74
2022/04/16 00:16:25;;;;;;;7.40;4.70;;;14.40;99.90;;;;;;5059856;28;21098;-73
2022/04/16 00:18:51;;;;;;;5.13;4.30;;;14.30;99.90;;;;;;5073855;28;20032;-73
2022/04/16 00:21:17;;;;;;;6.10;4.43;;;14.20;99.90;;;;;;5078939;28;20020;-73
2022/04/16 00:23:43;;;;;;;5.00;3.80;;;14.20;99.90;;;;;;5080478;28;20107;-73
2022/04/16 00:26:12;;;;;;;4.82;3.97;;;14.00;99.90;;;;;;5067419;28;20029;-74
2022/04/16 00:28:39;;;;;;;4.88;3.67;;;14.00;99.90;;;;;;5065859;28;20060;-73
2022/04/16 00:31:05;;;;;;;7.15;4.95;;;13.90;99.90;;;;;;5082586;28;20032;-74
2022/04/16 00:33:33;;;;;;;5.20;4.35;;;13.90;99.90;;;;;;5084520;28;20047;-73
2022/04/16 00:36:02;;;;;;;5.75;4.35;;;13.90;99.90;;;;;;5077468;28;20045;-74
2022/04/16 00:38:28;;;;;;;6.75;4.35;;;13.90;99.90;;;;;;5076352;28;20035;-73
2022/04/16 00:40:55;;;;;;;5.95;4.95;;;13.90;99.90;;;;;;5075934;28;20032;-74
2022/04/16 00:43:27;;;;;;;6.60;4.18;;;13.80;99.90;;;;;;5080043;28;20028;-73
2022/04/16 00:45:53;;;;;;;6.93;4.93;;;13.80;99.90;;;;;;5085226;28;20031;-73
2022/04/16 00:48:20;;;;;;;6.43;4.20;;;13.70;99.90;;;;;;5077408;28;20039;-73
2022/04/16 00:50:51;;;;;;;5.60;4.75;;;13.70;99.90;;;;;;5080252;28;20123;-73
2022/04/16 00:53:17;;;;;;;6.18;4.45;;;13.70;99.90;;;;;;5082202;28;20024;-74
2022/04/16 00:55:44;;;;;;;6.15;4.70;;;13.70;99.90;;;;;;5076600;28;20139;-73
2022/04/16 00:58:10;;;;;;;10.82;5.55;;;13.70;99.90;;;;;;5078559;28;20115;-73
2022/04/16 01:00:36;;;;;;;5.95;5.30;;;13.70;99.90;;;;;;5074661;28;20124;-73
2022/04/16 01:03:02;;;;;;;8.48;5.72;;;13.60;99.90;;;;;;5079265;28;20024;-73
2022/04/16 01:05:29;;;;;;;5.60;5.07;;;13.60;99.90;;;;;;5068094;28;20035;-73
2022/04/16 01:07:59;;;;;;;6.03;5.30;;;13.50;99.90;;;;;;5068929;28;20082;-74
2022/04/16 01:10:27;;;;;;;7.53;5.30;;;13.50;99.90;;;;;;5080135;28;20336;-73
2022/04/16 01:12:54;;;;;;;12.32;5.82;;;13.50;99.90;;;;;;5074992;28;20075;-73
2022/04/16 01:15:20;;;;;;;7.47;5.63;;;13.40;99.90;;;;;;5080040;28;20086;-73
2022/04/16 01:17:47;;;;;;;9.90;5.55;;;13.40;99.90;;;;;;5079710;28;20031;-73
2022/04/16 01:20:14;;;;;;;9.52;5.82;;;13.40;99.90;;;;;;5077960;28;20032;-73
2022/04/16 01:22:40;;;;;;;9.77;6.22;;;13.40;99.90;;;;;;5079398;28;20127;-73
2022/04/16 01:25:10;;;;;;;9.02;5.95;;;13.40;99.90;;;;;;5073167;28;20029;-73
2022/04/16 01:27:36;;;;;;;11.15;6.00;;;13.30;99.90;;;;;;5079208;28;20029;-74
2022/04/16 01:30:03;;;;;;;7.72;6.50;;;13.30;99.90;;;;;;5077490;28;20028;-73
2022/04/16 01:32:32;;;;;;;9.73;6.13;;;13.30;99.90;;;;;;5085829;28;20032;-74
2022/04/16 01:34:59;;;;;;;9.98;6.53;;;13.20;99.90;;;;;;5082724;28;20045;-73
2022/04/16 01:37:31;;;;;;;9.05;6.07;;;13.30;99.90;;;;;;5062296;28;20043;-74
2022/04/16 01:39:58;;;;;;;;;;;13.20;99.90;;;;;;5083522;28;20028;-73
2022/04/16 01:42:24;;;;;;;8.13;5.50;;;13.20;99.90;;;;;;5082060;28;19919;-73
2022/04/16 01:44:51;;;;;;;5.30;4.63;;;13.20;99.90;;;;;;5075727;28;20020;-73
2022/04/16 01:47:16;;;;;;;7.68;5.85;;;13.10;99.90;;;;;;5076346;28;20033;-74
2022/04/16 01:49:42;;;;;;;8.90;6.25;;;13.10;99.90;;;;;;5062900;28;20097;-73
2022/04/16 01:52:09;;;;;;;8.90;5.82;;;13.10;99.90;;;;;;5085908;28;20032;-73
2022/04/16 01:54:35;;;;;;;9.23;5.70;;;13.00;99.90;;;;;;5089952;28;20567;-74
2022/04/16 01:57:01;;;;;;;7.80;6.03;;;13.00;99.90;;;;;;5083761;28;20498;-73
2022/04/16 01:59:29;;;;;;;8.10;6.45;;;12.90;99.90;;;;;;5076522;28;20511;-74
2022/04/16 02:01:56;;;;;;;7.60;5.10;;;12.90;99.90;;;;;;5080615;28;20992;-73
2022/04/16 02:04:22;;;;;;;7.88;6.05;;;12.90;99.90;;;;;;5083265;28;20029;-74
2022/04/16 02:06:50;;;;;;;9.27;6.00;;;12.80;99.90;;;;;;5083902;28;20399;-73
2022/04/16 02:09:17;;;;;;;11.10;6.20;;;12.80;99.90;;;;;;5070142;28;20033;-74
2022/04/16 02:11:43;;;;;;;6.60;5.30;;;12.90;99.90;;;;;;5078420;28;20035;-73
2022/04/16 02:14:09;;;;;;;11.63;6.07;;;12.80;99.90;;;;;;5076135;28;20055;-73
2022/04/16 02:16:35;;;;;;;10.43;5.80;;;12.70;99.90;;;;;;5075219;28;20537;-73
2022/04/16 02:19:00;;;;;;;9.27;5.57;;;12.70;99.90;;;;;;5064501;28;20063;-74
2022/04/16 02:21:27;;;;;;;7.85;5.45;;;12.70;99.90;;;;;;5079640;28;20119;-73
2022/04/16 02:23:54;;;;;;;7.55;5.65;;;12.70;99.90;;;;;;5079757;28;20116;-73
2022/04/16 02:26:23;;;;;;;7.45;5.88;;;12.60;99.90;;;;;;5076180;28;20032;-73
2022/04/16 02:28:49;;;;;;;7.53;5.22;;;12.60;99.90;;;;;;5070479;28;20028;-73
2022/04/16 02:31:15;;;;;;;9.13;6.13;;;12.70;99.90;;;;;;5082071;28;20047;-73
2022/04/16 02:33:41;;;;;;;8.52;5.72;;;12.70;99.90;;;;;;5078389;28;20456;-73
2022/04/16 02:36:07;;;;;;;9.25;6.25;;;12.60;99.90;;;;;;5074641;28;20040;-73
2022/04/16 02:38:33;;;;;;;10.02;5.43;;;12.60;99.90;;;;;;5078228;28;20028;-73
2022/04/16 02:40:59;;;;;;;8.52;6.45;;;12.60;99.90;;;;;;5077249;28;20028;-73
2022/04/16 02:43:25;;;;;;;9.55;6.47;;;12.60;99.90;;;;;;5067937;28;20415;-73
2022/04/16 02:48:35;;;;;;;8.05;5.93;;;12.50;99.90;;;;;;5086947;28;20081;-73
2022/04/16 02:51:00;;;;;;;8.48;6.78;;;12.50;99.90;;;;;;5072877;28;20037;-73
2022/04/16 02:53:26;;;;;;;10.93;7.38;;;12.40;99.90;;;;;;5071327;28;20052;-73
2022/04/16 02:55:55;;;;;;;10.70;7.22;;;12.50;99.90;;;;;;5074024;28;20051;-74
2022/04/16 02:58:21;;;;;;;6.95;5.88;;;12.40;99.90;;;;;;5069174;28;20083;-73
2022/04/16 03:00:47;;;;;;;11.77;6.50;;;12.40;99.90;;;;;;5083952;28;20032;-73
2022/04/16 03:03:12;;;;;;;9.75;6.15;;;12.50;99.90;;;;;;5084379;28;20024;-73
2022/04/16 03:05:39;;;;;;;10.57;6.15;;;12.40;99.90;;;;;;5077130;28;20485;-73
2022/04/16 03:08:10;;;;;;;9.82;6.45;;;12.40;99.90;;;;;;5083792;28;20039;-73
2022/04/16 03:10:35;;;;;;;9.82;7.18;;;12.30;99.90;;;;;;5083053;28;20032;-73
2022/04/16 03:13:01;;;;;;;9.43;6.95;;;12.30;99.90;;;;;;5066050;28;20071;-73
2022/04/16 03:18:12;;;;;;;11.57;7.25;;;12.20;99.90;;;;;;5083233;28;20118;-73
2022/04/16 03:20:40;;;;;;;9.38;6.82;;;12.30;99.90;;;;;;5079436;28;20036;-74
2022/04/16 03:23:06;;;;;;;10.65;6.93;;;12.20;99.90;;;;;;5080747;28;20016;-73
2022/04/16 03:25:32;;;;;;;7.38;5.82;;;12.20;99.90;;;;;;5083104;28;20112;-74
2022/04/16 03:27:58;;;;;;;8.25;7.05;;;12.20;99.90;;;;;;5077869;28;20060;-73
2022/04/16 03:30:24;;;;;;;7.47;6.18;;;12.10;99.90;;;;;;5067484;28;20523;-73
2022/04/16 03:32:52;;;;;;;9.48;7.15;;;12.20;99.90;;;;;;5075396;28;20035;-73
2022/04/16 03:35:19;;;;;;;10.50;7.25;;;12.10;99.90;;;;;;5072738;28;20032;-73
2022/04/16 03:37:45;;;;;;;8.85;6.45;;;12.10;99.90;;;;;;5075546;28;20033;-74
2022/04/16 03:40:12;;;;;;;9.05;6.70;;;12.10;99.90;;;;;;5081600;28;20027;-73
2022/04/16 03:42:49;;;;;;;9.95;6.93;;;12.10;99.90;;;;;;5070992;28;20028;-73
2022/04/16 03:45:18;;;;;;;12.57;7.18;;;12.00;99.90;;;;;;5077086;28;20603;-73
2022/04/16 03:47:45;;;;;;;12.75;8.20;;;12.00;99.90;;;;;;5074553;28;20040;-74
2022/04/16 03:50:12;;;;;;;11.52;6.93;;;11.90;99.90;;;;;;5067525;28;20031;-74
2022/04/16 03:52:47;;;;;;;10.80;7.70;;;11.90;99.90;;;;;;5070145;28;20037;-74
2022/04/16 04:00:46;;;;;;;11.20;8.05;;;11.80;99.90;;;;;;5080693;28;20086;-74
2022/04/16 04:03:13;;;;;;;9.45;7.50;;;11.70;99.90;;;;;;5076019;28;20485;-74
2022/04/16 04:05:39;;;;;;;11.52;8.18;;;11.70;99.90;;;;;;5074819;28;20232;-74
2022/04/16 04:08:06;;;;;;;10.90;7.65;;;11.60;99.90;;;;;;5081969;28;20023;-73
2022/04/16 04:10:32;;;;;;;9.38;7.75;;;11.60;99.90;;;;;;5083364;28;20027;-74
2022/04/16 04:12:58;;;;;;;9.40;7.57;;;11.70;99.90;;;;;;5071918;28;20029;-73
2022/04/16 04:15:24;;;;;;;9.82;7.50;;;11.70;99.90;;;;;;5070587;28;20563;-74
2022/04/16 04:17:50;;;;;;;11.43;8.15;;;11.60;99.90;;;;;;5072640;28;20505;-74
2022/04/16 04:20:16;;;;;;;10.98;8.18;;;11.60;99.90;;;;;;5074813;28;20027;-74
2022/04/16 04:22:42;;;;;;;11.32;7.50;;;11.60;99.90;;;;;;5064741;28;20044;-73
2022/04/16 04:25:08;;;;;;;10.45;7.72;;;11.60;99.90;;;;;;5066581;28;20032;-74
2022/04/16 04:27:34;;;;;;;10.23;7.32;;;11.60;99.90;;;;;;5056833;28;20016;-73
2022/04/16 04:30:02;;;;;;;10.77;7.32;;;11.60;99.90;;;;;;5076829;28;20114;-74
2022/04/16 04:32:28;;;;;;;11.45;7.68;;;11.60;99.90;;;;;;5084820;28;20032;-74
2022/04/16 04:34:54;;;;;;;8.70;7.05;;;11.70;99.90;;;;;;5071273;28;20543;-73
2022/04/16 04:37:20;;;;;;;8.80;7.10;;;11.70;99.90;;;;;;5062424;28;20025;-73
2022/04/16 04:39:45;;;;;;;9.93;6.28;;;11.70;99.90;;;;;;5084814;28;20738;-74
2022/04/16 04:42:11;;;;;;;10.07;7.05;;;11.70;99.90;;;;;;5077856;28;20088;-73
2022/04/16 04:44:37;;;;;;;10.35;7.57;;;11.70;99.90;;;;;;5072683;28;20079;-73
2022/04/16 04:47:03;;;;;;;8.25;6.65;;;11.60;99.90;;;;;;5081219;28;20028;-73
2022/04/16 04:49:29;;;;;;;9.02;7.25;;;11.60;99.90;;;;;;5085105;28;20020;-73
2022/04/16 04:51:55;;;;;;;9.40;6.70;;;11.60;99.90;;;;;;5078780;28;20494;-73
2022/04/16 04:54:21;;;;;;;9.95;6.78;;;11.60;99.90;;;;;;5070460;28;20548;-73
2022/04/16 04:56:47;;;;;;;8.18;7.03;;;11.60;99.90;;;;;;5071682;28;20103;-73
2022/04/16 04:59:13;;;;;;;15.00;8.07;;;11.50;99.90;;;;;;5073757;28;20111;-73
2022/04/16 05:01:39;;;;;;;13.48;9.05;;;11.50;99.90;;;;;;5079189;28;20497;-73
2022/04/16 05:04:05;;;;;;;11.75;8.05;;;11.40;99.90;;;;;;5082598;28;20025;-73
2022/04/16 05:06:31;;;;;;;12.13;8.68;;;11.40;99.90;;;;;;5071643;28;20020;-74
2022/04/16 05:08:57;;;;;;;10.45;8.57;;;11.40;99.90;;;;;;5074766;28;20033;-74
2022/04/16 05:11:23;;;;;;;11.52;8.23;;;11.40;99.90;;;;;;5065448;28;20028;-73
2022/04/16 05:13:48;;;;;;;11.07;8.32;;;11.40;99.90;;;;;;5063849;28;20585;-73
2022/04/16 05:16:14;;;;;;;12.18;8.82;;;11.40;99.90;;;;;;5055250;28;20108;-74
2022/04/16 05:18:41;;;;;;;12.70;8.48;;;11.40;99.90;;;;;;5075758;28;20502;-73
2022/04/16 05:21:07;;;;;;;12.68;8.07;;;11.50;99.90;;;;;;5075609;28;20028;-73
2022/04/16 05:23:32;;;;;;;15.10;10.48;;;11.40;99.90;;;;;;5072958;28;20086;-74
2022/04/16 05:25:58;;;;;;;11.45;8.70;;;11.40;99.90;;;;;;5065090;28;20074;-74
2022/04/16 05:28:24;;;;;;;11.18;7.93;;;11.40;99.90;;;;;;5075305;28;20063;-73
2022/04/16 05:30:54;;;;;;;12.48;8.80;;;11.40;99.90;;;;;;5066292;28;20483;-73
2022/04/16 05:36:06;;;;;;;11.07;9.20;;;11.40;99.90;;;;;;5081360;28;20031;-74
2022/04/16 05:38:32;;;;;;;11.55;9.07;;;11.40;99.90;;;;;;5080338;28;20050;-73
2022/04/16 05:40:58;;;;;;;9.73;7.70;;;11.50;99.90;;;;;;5079288;28;20024;-73
2022/04/16 05:43:24;;;;;;;11.40;9.02;;;11.40;99.90;;;;;;5079486;28;20051;-73
2022/04/16 05:45:50;;;;;;;12.25;8.65;;;11.40;99.90;;;;;;5088920;28;20497;-73
2022/04/16 05:48:17;;;;;;;10.38;8.55;;;11.50;99.90;;;;;;5071105;28;20514;-73
2022/04/16 05:50:44;;;;;;;11.02;8.32;;;11.40;99.90;;;;;;5073303;28;20128;-73
2022/04/16 05:53:11;;;;;;;10.30;8.27;;;11.50;99.90;;;;;;5062808;28;20103;-73
2022/04/16 05:55:44;;;;;;;11.38;8.13;;;11.50;99.90;;;;;;5055391;28;20140;-73
2022/04/16 05:58:11;;;;;;;9.57;8.10;;;11.50;99.90;;;;;;5082823;28;20037;-73
2022/04/16 06:00:37;;;;;;;11.63;8.23;;;11.40;99.90;;;;;;5084199;28;20028;-74
2022/04/16 06:03:04;;;;;;;12.15;9.20;;;11.40;99.90;;;;;;5071645;28;20518;-73
2022/04/16 06:05:31;;;;;;;12.57;7.97;;;11.40;99.90;;;;;;5071093;28;20095;-73
2022/04/16 06:07:57;;;;;;;11.02;7.95;;;11.50;99.90;;;;;;5087952;28;20077;-74
2022/04/16 06:10:23;;;;;;;12.05;8.57;;;11.50;99.90;;;;;;5075975;28;20317;-73
2022/04/16 06:12:49;;;;;;;10.18;8.02;;;11.50;99.90;;;;;;5081938;28;20627;-73
2022/04/16 06:15:15;;;;;;;12.63;9.18;;;11.50;99.90;;;;;;5079766;28;20386;-74
2022/04/16 06:17:40;;;;;;;13.55;9.13;;;11.50;99.90;;;;;;5074900;28;20038;-73
2022/04/16 06:20:08;;;;;;;9.63;7.95;;;11.60;99.90;;;;;;5079492;28;20020;-73
2022/04/16 06:22:34;;;;;;;11.05;8.20;;;11.60;99.90;;;;;;5082817;28;20039;-74
2022/04/16 06:25:00;;;;;;;11.98;8.88;;;11.50;99.90;;;;;;5085102;28;20099;-74
2022/04/16 06:27:26;;;;;;;11.35;8.45;;;11.50;99.90;;;;;;5072470;28;20032;-73
2022/04/16 06:29:52;;;;;;;10.82;8.50;;;11.60;99.90;;;;;;5077041;28;20028;-74
2022/04/16 06:32:18;;;;;;;11.05;8.00;;;11.70;99.90;;;;;;5078348;28;20027;-73
2022/04/16 06:34:44;;;;;;;9.65;7.82;;;11.80;99.90;;;;;;5077501;28;20028;-74
2022/04/16 06:37:09;;;;;;;9.20;7.55;;;11.70;99.90;;;;;;5084335;28;20580;-74
2022/04/16 06:39:35;;;;;;;10.07;7.90;;;11.60;99.90;;;;;;5076455;28;20032;-73
2022/04/16 06:42:01;;;;;;;10.82;8.05;;;11.60;99.90;;;;;;5075829;28;20059;-74
2022/04/16 06:44:27;;;;;;;10.77;7.75;;;11.70;99.90;;;;;;5073802;28;20016;-74
2022/04/16 06:46:54;;;;;;;8.13;6.47;;;11.90;99.90;;;;;;5087066;28;20035;-73
2022/04/16 06:49:25;;;;;;;10.90;7.75;;;11.80;99.90;;;;;;5075945;28;20043;-73
2022/04/16 06:51:51;;;;;;;8.15;7.30;;;11.70;99.90;;;;;;5082352;28;20037;-74
2022/04/16 06:54:17;;;;;;;8.63;6.63;;;11.70;99.90;;;;;;5075709;28;20044;-74
2022/04/16 06:56:43;;;;;;;7.90;6.88;;;11.80;99.90;;;;;;5070022;28;20417;-73
2022/04/16 06:59:09;;;;;;;9.25;7.57;;;11.70;99.90;;;;;;5078876;28;20050;-74
2022/04/16 07:01:34;;;;;;;8.45;6.90;;;11.60;99.90;;;;;;5082519;28;20028;-73
2022/04/16 07:04:00;;;;;;;8.77;6.40;;;11.80;99.90;;;;;;5061159;28;20025;-73
2022/04/16 07:06:26;;;;;;;12.18;7.50;;;11.80;99.90;;;;;;5086596;28;20111;-73
2022/04/16 07:08:52;;;;;;;9.90;7.57;;;11.80;99.90;;;;;;5082733;28;20040;-74
2022/04/16 07:11:18;;;;;;;7.82;6.90;;;11.80;99.90;;;;;;5072229;28;20036;-73
2022/04/16 07:13:44;;;;;;;9.65;8.00;;;11.90;99.90;;;;;;5071363;28;20024;-73
2022/04/16 07:16:09;;;;;;;7.47;6.70;;;11.70;99.90;;;;;;5083688;28;20039;-73
2022/04/16 07:18:35;;;;;;;9.05;6.95;;;11.80;99.90;;;;;;5076863;28;20028;-74
2022/04/16 07:21:01;;;;;;;9.55;7.30;;;11.80;99.90;;;;;;5074878;28;20497;-73
2022/04/16 07:23:26;;;;;;;9.02;7.15;;;11.80;99.90;;;;;;5082239;28;20489;-73
2022/04/16 07:25:52;;;;;;;9.77;7.32;;;11.90;99.90;;;;;;5086383;28;20551;-73
2022/04/16 07:28:24;;;;;;;7.53;6.25;;;12.00;99.90;;;;;;5073061;28;20537;-73
2022/04/16 07:30:50;;;;;;;8.55;6.70;;;12.10;99.90;;;;;;5067122;28;20037;-74
2022/04/16 07:33:16;;;;;;;9.30;6.50;;;12.00;99.90;;;;;;5077899;28;20035;-73
2022/04/16 07:35:42;;;;;;;7.82;6.13;;;12.00;99.90;;;;;;5079077;28;20031;-73
2022/04/16 07:38:08;;;;;;;8.80;6.70;;;12.00;99.90;;;;;;5077914;28;20026;-73
2022/04/16 07:40:34;;;;;;;7.32;6.45;;;12.00;99.90;;;;;;5074049;28;20032;-73
2022/04/16 07:43:01;;;;;;;9.98;6.70;;;12.10;99.90;;;;;;5081654;28;20029;-73
2022/04/16 07:45:28;;;;;;;7.95;6.97;;;12.10;99.90;;;;;;5085423;28;20032;-73
2022/04/16 07:47:53;;;;;;;8.40;6.60;;;12.10;99.90;;;;;;5081756;28;20521;-74
2022/04/16 07:50:19;;;;;;;9.57;6.97;;;12.10;99.90;;;;;;5072010;28;20077;-74
2022/04/16 07:52:46;;;;;;;8.85;6.60;;;12.00;99.90;;;;;;5061500;28;20035;-73
2022/04/16 07:55:12;;;;;;;7.93;5.53;;;12.10;99.90;;;;;;5082463;28;20048;-74
2022/04/16 07:57:38;;;;;;;7.30;5.93;;;12.20;99.90;;;;;;5082222;28;20043;-74
2022/04/16 08:00:06;;;;;;;8.25;6.40;;;12.20;99.90;;;;;;5080169;28;20036;-73
2022/04/16 08:02:31;;;;;;;9.98;7.68;;;12.20;99.90;;;;;;5082116;28;20024;-74
2022/04/16 08:04:58;;;;;;;9.48;6.97;;;12.20;99.90;;;;;;5085086;28;20020;-73
2022/04/16 08:07:24;;;;;;;9.15;6.72;;;12.30;99.90;;;;;;5073823;28;20100;-74
2022/04/16 08:09:50;;;;;;;8.95;6.80;;;12.40;99.90;;;;;;5077200;28;20139;-73
2022/04/16 08:12:15;;;;;;;12.50;7.93;;;12.50;99.90;;;;;;5078824;28;20023;-73
2022/04/16 08:14:41;;;;;;;9.55;6.50;;;12.50;99.90;;;;;;5071884;28;20016;-75
2022/04/16 08:17:07;;;;;;;9.98;7.35;;;12.60;99.90;;;;;;5063737;28;20043;-73
2022/04/16 08:19:33;;;;;;;11.30;7.22;;;12.60;99.90;;;;;;5078598;28;20583;-73
2022/04/16 08:21:59;;;;;;;9.90;7.68;;;12.60;99.90;;;;;;5086414;28;20017;-73
2022/04/16 08:26:56;;;;;;;10.23;7.82;;;12.60;99.90;;;;;;5082424;28;20589;-73
2022/04/16 08:29:22;;;;;;;9.38;6.97;;;12.50;99.90;;;;;;5072882;28;20020;-73
2022/04/16 08:31:49;;;;;;;10.25;7.32;;;12.60;99.90;;;;;;5074831;28;20028;-73
2022/04/16 08:34:14;;;;;;;9.25;6.80;;;12.90;99.90;;;;;;5081372;28;20486;-74
2022/04/16 08:36:40;;;;;;;8.25;6.55;;;13.00;99.90;;;;;;5083578;28;20035;-73
2022/04/16 08:39:06;;;;;;;8.05;6.47;;;13.00;99.90;;;;;;5079907;28;20043;-73
2022/04/16 08:41:32;;;;;;;9.25;6.55;;;13.10;99.90;;;;;;5077733;28;20498;-73
2022/04/16 08:43:58;;;;;;;9.15;6.93;;;13.10;99.90;;;;;;5079318;28;20533;-73
2022/04/16 08:46:27;;;;;;;9.63;6.90;;;13.10;99.90;;;;;;5073610;28;20033;-74
2022/04/16 08:48:54;;;;;;;10.48;7.35;;;12.90;99.90;;;;;;5080509;28;20052;-73
2022/04/16 08:51:20;;;;;;;7.35;5.60;;;13.00;99.90;;;;;;5081083;28;20566;-73
2022/04/16 08:53:46;;;;;;;8.50;6.53;;;13.10;99.90;;;;;;5078460;28;20031;-74
2022/04/16 08:56:11;;;;;;;9.57;6.50;;;13.30;99.90;;;;;;5073975;28;20135;-73
2022/04/16 08:58:38;;;;;;;8.40;6.05;;;13.50;99.90;;;;;;5057451;28;20033;-74
2022/04/16 09:01:05;;;;;;;6.53;5.50;;;13.50;99.90;;;;;;5067239;28;20040;-73
2022/04/16 09:03:34;;;;;;;8.40;5.93;;;13.60;99.90;;;;;;5089953;28;20028;-74
2022/04/16 09:06:00;;;;;;;7.63;5.53;;;13.40;99.90;;;;;;5083491;28;20054;-74
2022/04/16 09:08:33;;;;;;;7.72;5.97;;;13.50;99.90;;;;;;5079438;28;20119;-73
2022/04/16 09:11:11;;;;;;;7.82;5.82;;;13.70;99.90;;;;;;5077087;28;20028;-74
2022/04/16 09:13:49;;;;;;;8.23;5.38;;;13.70;99.90;;;;;;5080970;28;20123;-73
2022/04/16 09:16:16;;;;;;;8.38;5.93;;;13.80;99.90;;;;;;5087358;28;20078;-74
2022/04/16 09:19:17;;;;;;;6.22;5.28;;;14.00;99.90;;;;;;5087768;28;20032;-73
2022/04/16 09:21:43;;;;;;;8.23;5.97;;;13.90;99.90;;;;;;5085526;28;20040;-74
2022/04/16 09:24:10;;;;;;;6.80;5.60;;;14.50;99.90;;;;;;5083478;28;20020;-74
2022/04/16 09:26:38;;;;;;;7.70;6.47;;;14.80;99.90;;;;;;5077988;28;20040;-73
2022/04/16 09:29:12;;;;;;;6.43;5.60;;;14.60;99.90;;;;;;5071402;28;20048;-74
2022/04/16 09:31:40;;;;;;;15.23;7.53;;;14.50;99.90;;;;;;5079307;28;20040;-73
2022/04/16 09:34:06;;;;;;;11.18;6.88;;;14.70;99.90;;;;;;5085514;28;20029;-73
2022/04/16 09:36:38;;;;;;;10.25;6.70;;;15.00;99.90;;;;;;5085623;28;20032;-73
2022/04/16 09:39:06;;;;;;;7.75;6.13;;;15.10;99.90;;;;;;5075428;28;20036;-73
2022/04/16 09:41:33;;;;;;;8.85;6.60;;;14.80;99.90;;;;;;5079981;28;20035;-73
2022/04/16 09:43:59;;;;;;;8.77;6.35;;;14.80;99.90;;;;;;5072557;28;20013;-74
2022/04/16 09:46:28;;;;;;;9.10;6.38;;;14.70;99.90;;;;;;5077735;28;20054;-73
2022/04/16 09:49:02;;;;;;;8.30;7.00;;;14.80;99.90;;;;;;5078629;28;20033;-74
2022/04/16 09:51:33;;;;;;;9.00;6.72;;;15.10;99.90;;;;;;5085115;28;20042;-73
2022/04/16 09:54:02;;;;;;;9.43;6.88;;;15.00;99.90;;;;;;5083834;28;20043;-73
2022/04/16 09:56:28;;;;;;;7.57;5.97;;;15.10;99.90;;;;;;5077623;28;20048;-73
2022/04/16 09:58:57;;;;;;;9.00;6.22;;;14.90;99.90;;;;;;5077953;28;20070;-73
2022/04/16 10:01:24;;;;;;;8.02;5.90;;;15.60;99.90;;;;;;5088195;28;20033;-73
2022/04/16 10:03:54;;;;;;;7.55;6.03;;;15.90;99.90;;;;;;5080400;28;20020;-73
2022/04/16 10:06:20;;;;;;;7.75;5.32;;;16.10;99.90;;;;;;5079808;28;20025;-73
2022/04/16 10:08:49;;;;;;;9.00;6.45;;;16.00;99.90;;;;;;5079751;28;20036;-74
2022/04/16 10:11:20;;;;;;;7.57;5.93;;;16.10;99.90;;;;;;5076974;28;20052;-73
2022/04/16 10:13:56;;;;;;;7.78;5.60;;;16.80;99.90;;;;;;5065968;28;20078;-73
2022/04/16 10:16:32;;;;;;;7.22;5.47;;;17.00;99.90;;;;;;5077560;28;20033;-73
2022/04/16 10:18:58;;;;;;;6.57;5.82;;;16.90;99.90;;;;;;5086582;28;20054;-73
2022/04/16 10:21:33;;;;;;;6.68;5.22;;;17.00;99.90;;;;;;5080732;28;20107;-74
2022/04/16 10:24:01;;;;;;;6.85;5.68;;;16.80;99.90;;;;;;5084593;28;20067;-73
2022/04/16 10:26:39;;;;;;;7.32;5.25;;;16.40;99.90;;;;;;5069876;28;20032;-73
2022/04/16 10:29:05;;;;;;;6.70;5.63;;;16.70;99.90;;;;;;5073994;28;20039;-73
2022/04/16 10:31:33;;;;;;;5.90;5.30;;;17.10;99.90;;;;;;5081900;28;20463;-74
2022/04/16 10:34:05;;;;;;;5.93;5.00;;;17.20;99.90;;;;;;5081231;28;20036;-74
2022/04/16 10:36:38;;;;;;;6.65;5.70;;;17.50;99.90;;;;;;5085556;28;20044;-73
2022/04/16 10:39:23;;;;;;;6.72;5.43;;;17.90;99.90;;;;;;5079567;28;20028;-73
2022/04/16 10:41:57;;;;;;;8.30;5.00;;;17.90;99.90;;;;;;5081810;28;20028;-74
2022/04/16 10:44:24;;;;;;;5.97;5.38;;;18.00;99.90;;;;;;5069282;28;20028;-74
2022/04/16 10:46:51;;;;;;;6.78;5.75;;;18.00;99.90;;;;;;5077893;28;20027;-73
2022/04/16 10:49:25;;;;;;;6.93;5.25;;;18.30;99.90;;;;;;5066946;28;20029;-74
2022/04/16 10:51:52;;;;;;;7.85;5.25;;;18.40;99.90;;;;;;5084876;28;20059;-74
2022/04/16 10:54:32;;;;;;;7.72;5.10;;;18.30;99.90;;;;;;5081636;28;20040;-73
2022/04/16 10:56:59;;;;;;;7.35;5.00;;;18.40;99.90;;;;;;5070793;28;20051;-73
2022/04/16 10:59:38;;;;;;;5.47;4.72;;;18.60;99.90;;;;;;5079575;28;20047;-73
2022/04/16 11:02:22;;;;;;;5.90;4.93;;;19.20;99.90;;;;;;5064705;28;20024;-73
2022/04/16 11:05:08;;;;;;;5.43;4.10;;;19.20;99.90;;;;;;5074829;28;20029;-73
2022/04/16 11:07:36;;;;;;;5.57;4.93;;;19.10;99.90;;;;;;5078205;28;20025;-73
2022/04/16 11:10:04;;;;;;;5.65;5.10;;;19.10;99.90;;;;;;5074798;28;20554;-73
2022/04/16 11:12:29;;;;;;;5.18;4.50;;;19.10;99.90;;;;;;5083092;28;20032;-73
2022/04/16 11:14:55;;;;;;;5.72;4.13;;;19.50;99.90;;;;;;5075939;28;20520;-74
2022/04/16 11:17:22;;;;;;;5.30;4.18;;;19.50;99.90;;;;;;5080996;28;20025;-73
2022/04/16 11:20:01;;;;;;;7.45;5.00;;;19.30;99.90;;;;;;5087004;28;20115;-73
2022/04/16 11:22:27;;;;;;;5.60;4.65;;;19.40;99.90;;;;;;5076096;28;20103;-73
2022/04/16 11:24:52;;;;;;;6.05;4.70;;;19.40;99.90;;;;;;5080273;28;20108;-74
2022/04/16 11:36:08;;;;;;;5.13;4.07;;;19.60;99.90;;;;;;5033075;28;20048;-73
2022/04/16 11:38:36;;;;;;;7.93;5.53;;;19.70;99.90;;;;;;5040594;28;20033;-73
2022/04/16 11:41:04;;;;;;;7.80;5.00;;;19.80;99.90;;;;;;5030187;28;20025;-73
2022/04/16 11:43:31;;;;;;;6.13;4.90;;;20.00;99.90;;;;;;5029758;28;20026;-73
2022/04/16 11:46:00;;;;;;;5.30;4.80;;;20.30;99.90;;;;;;5039908;28;20037;-73
2022/04/16 11:48:25;;;;;;;5.05;4.50;;;20.00;99.90;;;;;;5041692;28;20043;-74
2022/04/16 11:50:52;;;;;;;7.75;5.30;;;20.10;99.90;;;;;;5035292;28;20112;-73
2022/04/16 11:53:17;;;;;;;5.47;4.88;;;20.20;99.90;;;;;;5025177;28;20114;-73
2022/04/16 11:55:47;;;;;;;7.32;5.78;;;20.20;99.90;;;;;;5038130;28;20072;-73
2022/04/16 11:58:15;;;;;;;5.40;4.55;;;20.20;99.90;;;;;;5036983;28;20038;-74
2022/04/16 12:00:54;;;;;;;4.97;4.45;;;20.60;99.90;;;;;;5036848;28;20041;-74
2022/04/16 12:03:20;;;;;;;6.82;4.65;;;20.70;99.90;;;;;;5027728;28;20022;-73
2022/04/16 12:05:49;;;;;;;5.57;4.90;;;20.80;99.90;;;;;;5028917;28;20108;-73
2022/04/16 12:08:17;;;;;;;5.30;4.80;;;20.80;99.30;;;;;;5059767;28;20043;-74
2022/04/16 12:10:47;;;;;;;5.97;4.15;;;20.50;99.70;;;;;;5079396;28;20040;-74
2022/04/16 12:13:14;;;;;;;6.53;5.25;;;20.60;99.80;;;;;;5081860;28;20059;-74
2022/04/16 12:15:44;;;;;;;6.95;4.80;;;20.80;99.40;;;;;;5084046;28;20043;-73
2022/04/16 12:18:15;;;;;;;9.25;5.25;;;20.70;99.90;;;;;;5065988;28;20036;-73
2022/04/16 12:20:46;;;;;;;5.97;5.18;;;20.70;99.30;;;;;;5072812;28;20516;-73
2022/04/16 12:23:19;;;;;;;;;;;21.10;99.50;;;;;;5073981;28;20032;-74
2022/04/16 12:25:45;;;;;;;10.52;5.10;;;21.00;99.50;;;;;;5071818;28;19923;-73
2022/04/16 12:28:12;;;;;;;7.38;5.05;;;21.00;99.10;;;;;;5079017;28;20044;-73
2022/04/16 12:30:38;;;;;;;8.32;5.53;;;21.10;98.90;;;;;;5076376;28;20024;-74
2022/04/16 12:33:12;;;;;;;6.15;4.80;;;20.90;99.00;;;;;;5079145;28;20060;-73
2022/04/16 12:35:45;;;;;;;6.35;5.00;;;20.90;99.00;;;;;;5079473;28;20057;-73
2022/04/16 12:38:15;;;;;;;5.22;4.70;;;21.00;98.70;;;;;;5082578;28;20111;-73
2022/04/16 12:40:41;;;;;;;5.70;4.00;;;21.00;98.60;;;;;;5071851;28;20029;-74
2022/04/16 12:43:07;;;;;;;6.78;4.63;;;20.90;98.40;;;;;;5077029;28;20482;-73
2022/04/16 12:45:34;;;;;;;5.85;4.60;;;21.10;98.50;;;;;;5079842;28;20021;-73
2022/04/16 12:48:00;;;;;;;6.28;4.60;;;21.00;98.60;;;;;;5074782;28;20127;-74
2022/04/16 12:50:28;;;;;;;3.92;3.53;;;21.00;98.90;;;;;;5068056;28;20055;-73
2022/04/16 12:52:54;;;;;;;5.47;4.07;;;21.20;99.10;;;;;;5080474;28;20060;-74
2022/04/16 12:55:20;;;;;;;6.70;4.90;;;21.50;97.80;;;;;;5081337;28;20097;-73
2022/04/16 12:57:46;;;;;;;5.82;4.13;;;21.50;98.50;;;;;;5087821;28;20040;-73
2022/04/16 13:00:13;;;;;;;6.40;5.15;;;21.60;98.70;;;;;;5075381;28;20031;-73
2022/04/16 13:02:44;;;;;;;6.47;4.43;;;21.70;97.90;;;;;;5078029;28;20084;-74
2022/04/16 13:05:11;;;;;;;6.32;4.65;;;21.50;97.90;;;;;;5072252;28;20025;-73
2022/04/16 13:07:38;;;;;;;5.07;4.57;;;21.20;98.10;;;;;;5078305;28;20020;-74
2022/04/16 13:10:05;;;;;;;5.88;4.25;;;21.10;98.10;;;;;;5081530;28;20025;-74
2022/04/16 13:12:31;;;;;;;7.25;5.00;;;21.50;98.20;;;;;;5078119;28;20032;-73